Time;durP1;ratioP1;P1;durP2;ratioP2;P2;SDS_P1;SDS_P2;PMS_P1;PMS_P2;Temp;Humidity;BMP_temperature;BMP_pressure;BME280_temperature;BME280_humidity;BME280_pressure;Samples;Min_cycle;Max_cycle;Signal;HPM_P1;HPM_P2
2023/01/15 00:01:34;;;;;;;9.43;1.48;;;8.30;99.90;;;;;;4855429;29;20038;-76
2023/01/15 00:04:04;;;;;;;6.40;1.60;;;8.20;99.90;;;;;;4856576;29;20041;-76
2023/01/15 00:06:34;;;;;;;7.70;1.55;;;8.10;99.90;;;;;;4856744;29;20053;-76
2023/01/15 00:08:59;;;;;;;8.85;1.52;;;8.00;99.90;;;;;;4856930;29;20053;-76
2023/01/15 00:11:25;;;;;;;8.65;1.63;;;7.90;99.90;;;;;;4856767;29;20510;-76
2023/01/15 00:13:51;;;;;;;10.68;1.30;;;7.80;99.90;;;;;;4856512;29;20114;-76
2023/01/15 00:16:22;;;;;;;8.27;1.45;;;7.70;99.90;;;;;;4855456;29;20053;-76
2023/01/15 00:18:59;;;;;;;7.22;1.60;;;7.60;99.90;;;;;;4854351;29;20132;-76
2023/01/15 00:21:27;;;;;;;5.75;1.17;;;7.50;99.90;;;;;;4847446;29;20046;-76
2023/01/15 00:29:23;;;;;;;9.95;1.85;;;7.30;99.90;;;;;;4845851;29;20088;-76
2023/01/15 00:31:58;;;;;;;7.97;1.65;;;7.30;99.90;;;;;;4862907;29;20131;-76
2023/01/15 00:34:25;;;;;;;10.90;1.60;;;7.20;99.90;;;;;;4842236;29;20085;-76
2023/01/15 00:36:51;;;;;;;9.63;1.63;;;7.20;99.90;;;;;;4856242;29;20046;-76
2023/01/15 00:39:17;;;;;;;9.73;1.98;;;7.20;99.90;;;;;;4851185;29;20084;-76
2023/01/15 00:41:43;;;;;;;9.32;1.65;;;7.20;99.90;;;;;;4853167;29;20125;-76
2023/01/15 00:44:09;;;;;;;10.05;1.98;;;7.10;99.90;;;;;;4866145;29;20133;-76
2023/01/15 00:46:36;;;;;;;8.50;1.58;;;7.10;99.90;;;;;;4854158;29;20049;-75
2023/01/15 00:49:02;;;;;;;10.57;1.90;;;7.10;99.90;;;;;;4839410;29;20057;-75
2023/01/15 00:51:27;;;;;;;13.57;1.80;;;7.10;99.90;;;;;;4856810;29;20097;-75
2023/01/15 00:53:53;;;;;;;11.50;1.63;;;7.10;99.90;;;;;;4857821;29;20060;-75
2023/01/15 00:56:19;;;;;;;8.93;1.70;;;7.00;99.90;;;;;;4859894;29;20161;-75
2023/01/15 00:58:46;;;;;;;10.82;1.52;;;7.00;99.90;;;;;;4844510;29;20114;-75
2023/01/15 01:01:13;;;;;;;12.25;1.50;;;7.00;99.90;;;;;;4846566;29;20069;-75
2023/01/15 01:03:38;;;;;;;7.53;1.50;;;7.00;99.90;;;;;;4843067;29;20483;-75
2023/01/15 01:06:05;;;;;;;9.82;2.38;;;6.90;99.90;;;;;;4844402;29;20049;-75
2023/01/15 01:08:30;;;;;;;9.63;1.80;;;6.90;99.90;;;;;;4844289;29;20490;-75
2023/01/15 01:11:09;;;;;;;11.75;2.20;;;6.90;99.90;;;;;;4860876;29;20064;-75
2023/01/15 01:13:36;;;;;;;10.30;1.60;;;6.90;99.90;;;;;;4862405;29;20059;-75
2023/01/15 01:16:03;;;;;;;7.75;1.63;;;6.90;99.90;;;;;;4863661;29;20132;-76
2023/01/15 01:18:29;;;;;;;9.32;1.60;;;6.90;99.90;;;;;;4856897;29;20426;-76
2023/01/15 01:20:55;;;;;;;9.77;1.77;;;6.90;99.90;;;;;;4857560;29;20048;-76
2023/01/15 01:23:24;;;;;;;10.77;2.08;;;6.80;99.90;;;;;;4859542;29;20045;-76
2023/01/15 01:25:50;;;;;;;12.57;1.70;;;6.90;99.90;;;;;;4858556;29;20526;-76
2023/01/15 01:28:15;;;;;;;10.60;1.52;;;6.90;99.90;;;;;;4860811;29;20132;-76
2023/01/15 01:30:41;;;;;;;6.40;1.50;;;6.90;99.90;;;;;;4859506;29;20049;-75
2023/01/15 01:33:07;;;;;;;9.20;1.60;;;6.90;99.90;;;;;;4859287;29;20592;-76
2023/01/15 01:35:33;;;;;;;8.02;1.60;;;6.80;99.90;;;;;;4858971;29;20080;-76
2023/01/15 01:37:58;;;;;;;8.75;1.75;;;6.90;99.90;;;;;;4843946;29;20493;-75
2023/01/15 01:40:24;;;;;;;9.25;1.63;;;6.90;99.90;;;;;;4859233;29;20049;-76
2023/01/15 01:42:50;;;;;;;10.65;1.85;;;6.90;99.90;;;;;;4859347;29;20547;-76
2023/01/15 01:45:23;;;;;;;9.65;1.52;;;6.80;99.90;;;;;;4843202;29;20403;-76
2023/01/15 01:47:52;;;;;;;9.93;1.70;;;6.80;99.90;;;;;;4860678;29;20064;-76
2023/01/15 01:50:18;;;;;;;10.18;2.08;;;6.90;99.90;;;;;;4858979;29;20057;-76
2023/01/15 01:52:59;;;;;;;9.27;1.50;;;6.90;99.90;;;;;;4858885;29;20041;-76
2023/01/15 01:55:26;;;;;;;11.43;1.50;;;6.90;99.90;;;;;;4858482;29;20050;-75
2023/01/15 01:57:54;;;;;;;8.68;1.75;;;6.80;99.90;;;;;;4858804;29;20524;-75
2023/01/15 02:00:22;;;;;;;10.48;2.08;;;6.80;99.90;;;;;;4857140;29;20093;-76
2023/01/15 02:02:50;;;;;;;9.70;1.65;;;6.80;99.90;;;;;;4857072;29;20048;-75
2023/01/15 02:05:32;;;;;;;15.10;2.53;;;6.90;99.90;;;;;;4855489;29;20061;-75
2023/01/15 02:07:59;;;;;;;9.82;1.60;;;6.90;99.90;;;;;;4858700;29;20089;-76
2023/01/15 02:10:25;;;;;;;11.40;2.03;;;6.90;99.90;;;;;;4840926;29;20067;-75
2023/01/15 02:13:14;;;;;;;10.77;1.70;;;6.80;99.90;;;;;;4858414;29;20049;-75
2023/01/15 02:15:52;;;;;;;12.30;2.25;;;6.80;99.90;;;;;;4871893;29;20519;-75
2023/01/15 02:18:23;;;;;;;12.80;1.90;;;6.80;99.90;;;;;;4856940;29;20050;-75
2023/01/15 02:21:05;;;;;;;13.68;1.92;;;6.80;99.90;;;;;;4858756;29;20041;-75
2023/01/15 02:23:49;;;;;;;9.90;1.92;;;6.80;99.90;;;;;;4857460;29;20041;-75
2023/01/15 02:26:52;;;;;;;8.27;1.35;;;6.80;99.90;;;;;;4858466;29;20052;-75
2023/01/15 02:29:28;;;;;;;14.48;1.88;;;6.80;99.90;;;;;;4849144;29;20053;-75
2023/01/15 02:31:54;;;;;;;8.68;1.67;;;6.80;99.90;;;;;;4856322;29;20054;-75
2023/01/15 02:34:32;;;;;;;8.68;1.60;;;6.80;99.90;;;;;;4840336;29;20049;-75
2023/01/15 02:37:05;;;;;;;10.45;1.73;;;6.70;99.90;;;;;;4854383;29;20199;-75
2023/01/15 02:39:33;;;;;;;8.50;2.35;;;6.70;99.90;;;;;;4857314;29;20068;-75
2023/01/15 02:42:02;;;;;;;12.05;2.28;;;6.70;99.90;;;;;;4856760;29;20046;-75
2023/01/15 02:44:32;;;;;;;9.90;2.10;;;6.70;99.90;;;;;;4857375;29;20088;-75
2023/01/15 02:46:59;;;;;;;16.85;2.40;;;6.70;99.90;;;;;;4857415;29;20053;-75
2023/01/15 02:49:26;;;;;;;9.27;1.90;;;6.70;99.90;;;;;;4841821;29;20049;-75
2023/01/15 02:52:32;;;;;;;8.45;1.75;;;6.70;99.90;;;;;;4841196;29;20089;-75
2023/01/15 02:55:13;;;;;;;7.13;1.50;;;6.70;99.90;;;;;;4852548;29;20146;-75
2023/01/15 02:57:42;;;;;;;13.07;2.00;;;6.70;99.90;;;;;;4856035;29;20073;-76
2023/01/15 03:00:11;;;;;;;10.20;1.85;;;6.70;99.90;;;;;;4855852;29;20056;-76
2023/01/15 03:02:44;;;;;;;13.27;1.80;;;6.70;99.90;;;;;;4854852;29;20128;-75
2023/01/15 03:05:19;;;;;;;11.77;2.15;;;6.70;99.90;;;;;;4857694;29;20053;-75
2023/01/15 03:07:58;;;;;;;11.07;1.88;;;6.70;99.90;;;;;;4855665;29;20406;-76
2023/01/15 03:10:51;;;;;;;12.05;2.00;;;6.60;99.90;;;;;;4857094;29;20057;-75
2023/01/15 03:13:27;;;;;;;12.13;2.20;;;6.70;99.90;;;;;;4852820;29;20065;-76
2023/01/15 03:16:34;;;;;;;6.95;1.27;;;6.70;99.90;;;;;;4856463;29;20691;-75
2023/01/15 03:19:16;;;;;;;11.23;2.40;;;6.70;99.90;;;;;;4847397;29;20587;-76
2023/01/15 03:22:10;;;;;;;10.00;1.98;;;6.70;99.90;;;;;;4856233;29;20069;-75
2023/01/15 03:24:53;;;;;;;10.13;2.15;;;6.70;99.90;;;;;;4856436;29;20401;-75
2023/01/15 03:27:20;;;;;;;8.65;1.75;;;6.70;99.90;;;;;;4857721;29;20073;-76
2023/01/15 03:30:12;;;;;;;12.32;2.47;;;6.80;99.90;;;;;;4856515;29;20871;-76
2023/01/15 03:32:38;;;;;;;9.68;2.00;;;6.70;99.90;;;;;;4851934;29;20033;-75
2023/01/15 03:35:06;;;;;;;11.18;1.80;;;6.70;99.90;;;;;;4841888;29;20053;-75
2023/01/15 03:37:32;;;;;;;13.05;1.95;;;6.70;99.90;;;;;;4855813;29;20056;-75
2023/01/15 03:39:58;;;;;;;12.30;1.67;;;6.70;99.90;;;;;;4856374;29;20054;-75
2023/01/15 03:43:39;;;;;;;17.90;2.60;;;6.60;99.90;;;;;;4855394;29;20129;-75
2023/01/15 03:45:42;;;;;;;11.30;1.95;;;6.60;99.90;;;;;;4854385;29;20049;-75
2023/01/15 03:48:23;;;;;;;10.95;2.15;;;6.60;99.90;;;;;;4856661;29;20057;-75
2023/01/15 03:51:03;;;;;;;10.05;1.90;;;6.60;99.90;;;;;;4853995;29;20045;-75
2023/01/15 03:53:40;;;;;;;9.95;2.03;;;6.60;99.90;;;;;;4856735;29;20072;-75
2023/01/15 03:56:18;;;;;;;10.52;1.73;;;6.60;99.90;;;;;;4857015;29;20546;-75
2023/01/15 03:58:52;;;;;;;8.50;1.70;;;6.60;99.90;;;;;;4843231;29;20060;-75
2023/01/15 04:01:25;;;;;;;8.25;1.55;;;6.60;99.90;;;;;;4838167;29;20047;-75
2023/01/15 04:03:52;;;;;;;9.75;1.50;;;6.60;99.90;;;;;;4856017;29;20575;-75
2023/01/15 04:06:18;;;;;;;10.10;1.77;;;6.60;99.90;;;;;;4856572;29;20042;-75
2023/01/15 04:08:46;;;;;;;11.20;2.30;;;6.60;99.90;;;;;;4856158;29;20115;-75
2023/01/15 04:11:12;;;;;;;10.57;2.35;;;6.60;99.90;;;;;;4856989;29;20080;-75
2023/01/15 04:13:37;;;;;;;11.57;1.70;;;6.60;99.90;;;;;;4855055;29;20053;-75
2023/01/15 04:16:03;;;;;;;14.77;2.25;;;6.60;99.90;;;;;;4854449;29;20052;-75
2023/01/15 04:18:29;;;;;;;10.65;1.90;;;6.50;99.90;;;;;;4852749;29;20047;-75
2023/01/15 04:20:54;;;;;;;11.38;2.00;;;6.60;99.90;;;;;;4855935;29;20124;-75
2023/01/15 04:23:21;;;;;;;10.55;2.13;;;6.50;99.90;;;;;;4841887;29;20049;-75
2023/01/15 04:25:46;;;;;;;7.40;1.60;;;6.50;99.90;;;;;;4858201;29;20053;-75
2023/01/15 04:28:12;;;;;;;11.73;1.70;;;6.50;99.90;;;;;;4854681;29;20120;-75
2023/01/15 04:30:38;;;;;;;8.75;1.67;;;6.50;99.90;;;;;;4840073;29;20067;-75
2023/01/15 04:33:04;;;;;;;13.30;1.90;;;6.50;99.90;;;;;;4838386;29;20085;-75
2023/01/15 04:35:30;;;;;;;8.32;2.03;;;6.50;99.90;;;;;;4856538;29;20045;-75
2023/01/15 04:37:57;;;;;;;11.15;2.15;;;6.50;99.90;;;;;;4855121;29;20034;-75
2023/01/15 04:45:55;;;;;;;9.80;2.13;;;6.40;99.90;;;;;;4853748;29;20049;-76
2023/01/15 04:48:20;;;;;;;11.55;2.42;;;6.40;99.90;;;;;;4856310;29;20050;-75
2023/01/15 04:50:46;;;;;;;11.15;2.10;;;6.40;99.90;;;;;;4855851;29;20075;-75
2023/01/15 04:53:12;;;;;;;10.75;1.92;;;6.40;99.90;;;;;;4856190;29;20101;-75
2023/01/15 04:55:37;;;;;;;9.88;1.80;;;6.30;99.90;;;;;;4856166;29;20518;-75
2023/01/15 04:58:03;;;;;;;14.18;1.63;;;6.30;99.90;;;;;;4855502;29;20137;-75
2023/01/15 05:00:28;;;;;;;10.32;2.13;;;6.30;99.90;;;;;;4852638;29;20049;-75
2023/01/15 05:02:54;;;;;;;12.20;1.95;;;6.30;99.90;;;;;;4854635;29;20053;-76
2023/01/15 05:05:20;;;;;;;12.93;1.90;;;6.40;99.90;;;;;;4856509;29;20132;-75
2023/01/15 05:07:45;;;;;;;13.73;2.38;;;6.40;99.90;;;;;;4855657;29;20395;-75
2023/01/15 05:10:11;;;;;;;9.55;1.92;;;6.40;99.90;;;;;;4855355;29;20049;-75
2023/01/15 05:12:37;;;;;;;14.15;2.20;;;6.30;99.90;;;;;;4854763;29;20042;-76
2023/01/15 05:15:03;;;;;;;10.48;1.90;;;6.30;99.90;;;;;;4854602;29;20046;-75
2023/01/15 05:17:28;;;;;;;8.20;1.58;;;6.30;99.90;;;;;;4856367;29;20053;-75
2023/01/15 05:19:54;;;;;;;7.47;1.67;;;6.20;99.90;;;;;;4855400;29;20503;-75
2023/01/15 05:22:19;;;;;;;11.25;2.15;;;6.20;99.90;;;;;;4839799;29;20113;-75
2023/01/15 05:24:45;;;;;;;8.95;1.70;;;6.20;99.90;;;;;;4856049;29;20064;-75
2023/01/15 05:27:11;;;;;;;11.38;1.85;;;6.10;99.90;;;;;;4854524;29;20053;-75
2023/01/15 05:29:37;;;;;;;9.82;1.60;;;6.10;99.90;;;;;;4850613;29;20049;-75
2023/01/15 05:32:02;;;;;;;9.35;1.80;;;6.20;99.90;;;;;;4852500;29;20045;-75
2023/01/15 05:34:28;;;;;;;8.63;1.95;;;6.10;99.90;;;;;;4853274;29;20136;-75
2023/01/15 05:36:54;;;;;;;8.85;1.77;;;6.00;99.90;;;;;;4857868;29;20050;-75
2023/01/15 05:39:19;;;;;;;11.25;2.10;;;6.00;99.90;;;;;;4857407;29;20041;-75
2023/01/15 05:41:48;;;;;;;11.82;1.85;;;6.10;99.90;;;;;;4858527;29;20073;-75
2023/01/15 05:44:22;;;;;;;12.77;2.08;;;6.00;99.90;;;;;;4844001;29;20049;-75
2023/01/15 05:46:49;;;;;;;7.18;1.77;;;6.10;99.90;;;;;;4858535;29;20494;-75
2023/01/15 05:49:18;;;;;;;6.18;1.27;;;6.10;99.90;;;;;;4857073;29;20520;-75
2023/01/15 05:51:44;;;;;;;10.15;1.65;;;6.00;99.90;;;;;;4843099;29;20482;-75
2023/01/15 05:54:27;;;;;;;11.35;2.00;;;5.90;99.90;;;;;;4858282;29;20057;-75
2023/01/15 05:56:54;;;;;;;11.32;1.73;;;5.90;99.90;;;;;;4846047;29;20049;-75
2023/01/15 05:59:22;;;;;;;10.70;1.70;;;5.90;99.90;;;;;;4857160;29;20041;-75
2023/01/15 06:01:48;;;;;;;10.52;1.50;;;5.90;99.90;;;;;;4857881;29;20049;-75
2023/01/15 06:04:16;;;;;;;15.80;1.98;;;5.90;99.90;;;;;;4856198;29;20537;-75
2023/01/15 06:06:42;;;;;;;8.05;1.48;;;5.90;99.90;;;;;;4857934;29;20491;-75
2023/01/15 06:09:09;;;;;;;10.15;2.05;;;5.80;99.90;;;;;;4858708;29;20046;-75
2023/01/15 06:11:34;;;;;;;11.65;1.80;;;5.90;99.90;;;;;;4857479;29;20065;-75
2023/01/15 06:14:00;;;;;;;7.60;1.40;;;5.90;99.90;;;;;;4857883;29;20049;-75
2023/01/15 06:16:26;;;;;;;7.63;1.50;;;5.90;99.90;;;;;;4857567;29;20150;-75
2023/01/15 06:18:52;;;;;;;15.82;1.92;;;5.80;99.90;;;;;;4858437;29;21202;-75
2023/01/15 06:21:18;;;;;;;9.93;1.88;;;5.80;99.90;;;;;;4857753;29;20042;-75
2023/01/15 06:23:44;;;;;;;11.63;1.73;;;5.80;99.90;;;;;;4855970;29;20049;-75
2023/01/15 06:26:13;;;;;;;9.50;1.83;;;5.80;99.90;;;;;;4857502;29;20160;-75
2023/01/15 06:28:39;;;;;;;9.77;2.03;;;5.90;99.90;;;;;;4854920;29;20105;-75
2023/01/15 06:31:06;;;;;;;4.88;1.50;;;5.90;99.90;;;;;;4857965;29;20095;-76
2023/01/15 06:33:32;;;;;;;9.75;1.70;;;5.90;99.90;;;;;;4859521;29;20080;-75
2023/01/15 06:36:01;;;;;;;8.48;1.75;;;6.00;99.90;;;;;;4857686;29;20525;-75
2023/01/15 06:38:26;;;;;;;7.85;1.80;;;5.90;99.90;;;;;;4857546;29;20434;-75
2023/01/15 06:40:52;;;;;;;7.28;1.50;;;5.90;99.90;;;;;;4856990;29;20132;-75
2023/01/15 06:48:46;;;;;;;9.20;1.40;;;5.90;99.90;;;;;;4836925;29;20124;-75
2023/01/15 06:51:14;;;;;;;8.70;1.77;;;5.80;99.90;;;;;;4856118;29;20053;-75
2023/01/15 06:53:40;;;;;;;9.82;1.70;;;5.80;99.90;;;;;;4856376;29;20117;-75
2023/01/15 06:56:06;;;;;;;8.27;1.30;;;5.80;99.90;;;;;;4855704;29;20061;-75
2023/01/15 06:58:31;;;;;;;13.25;1.92;;;5.80;99.90;;;;;;4842379;29;20041;-75
2023/01/15 07:00:57;;;;;;;9.68;1.60;;;5.80;99.90;;;;;;4856328;29;20486;-75
2023/01/15 07:03:23;;;;;;;7.85;1.48;;;5.80;99.90;;;;;;4835617;29;20064;-75
2023/01/15 07:05:48;;;;;;;6.47;1.45;;;5.80;99.90;;;;;;4858646;29;20092;-75
2023/01/15 07:08:14;;;;;;;12.55;1.67;;;5.80;99.90;;;;;;4854965;29;20046;-75
2023/01/15 07:10:40;;;;;;;10.10;2.03;;;5.80;99.10;;;;;;4857335;29;20061;-75
2023/01/15 07:13:08;;;;;;;10.52;1.35;;;5.80;99.40;;;;;;4854895;29;20053;-76
2023/01/15 07:15:33;;;;;;;11.73;1.83;;;5.80;98.90;;;;;;4855834;29;20046;-75
2023/01/15 07:17:59;;;;;;;11.38;1.67;;;5.80;98.50;;;;;;4855800;29;20068;-74
2023/01/15 07:20:25;;;;;;;8.90;1.60;;;5.70;98.70;;;;;;4856435;29;20482;-75
2023/01/15 07:22:51;;;;;;;8.93;1.77;;;5.70;98.70;;;;;;4852698;29;20045;-75
2023/01/15 07:25:17;;;;;;;7.95;1.30;;;5.70;99.00;;;;;;4841195;29;20133;-75
2023/01/15 07:27:45;;;;;;;7.43;1.17;;;5.70;98.70;;;;;;4857176;29;20486;-75
2023/01/15 07:30:11;;;;;;;7.30;1.65;;;5.70;98.20;;;;;;4853021;29;20049;-75
2023/01/15 07:32:37;;;;;;;7.35;1.50;;;5.80;95.90;;;;;;4855026;29;20478;-75
2023/01/15 07:35:03;;;;;;;12.65;1.70;;;5.80;95.70;;;;;;4854993;29;20053;-75
2023/01/15 07:37:28;;;;;;;5.00;1.20;;;5.80;94.50;;;;;;4839041;29;20229;-76
2023/01/15 07:39:56;;;;;;;10.98;1.52;;;5.80;93.70;;;;;;4855600;29;20057;-76
2023/01/15 07:50:37;;;;;;;6.13;1.23;;;5.60;93.40;;;;;;4855891;29;20610;-76
2023/01/15 07:53:02;;;;;;;9.75;1.48;;;5.70;92.50;;;;;;4841139;29;20081;-76
2023/01/15 07:55:28;;;;;;;7.18;1.15;;;5.70;92.00;;;;;;4856629;29;20549;-76
2023/01/15 07:57:57;;;;;;;7.65;1.63;;;5.80;92.30;;;;;;4853635;29;20082;-76
2023/01/15 08:00:24;;;;;;;8.30;1.73;;;5.80;91.90;;;;;;4856072;29;20057;-75
2023/01/15 08:02:50;;;;;;;10.55;1.65;;;5.80;91.30;;;;;;4849895;29;20044;-76
2023/01/15 08:05:16;;;;;;;6.68;1.35;;;5.80;90.20;;;;;;4856349;29;20045;-76
2023/01/15 08:07:43;;;;;;;7.30;1.48;;;5.90;90.10;;;;;;4854820;29;20148;-76
2023/01/15 08:10:11;;;;;;;3.58;1.00;;;5.90;89.80;;;;;;4841144;29;20057;-76
2023/01/15 08:15:21;;;;;;;7.13;2.08;;;5.90;90.00;;;;;;4850024;29;20060;-76
2023/01/15 08:17:49;;;;;;;7.55;1.50;;;5.90;90.30;;;;;;4853077;29;20041;-75
2023/01/15 08:20:20;;;;;;;8.70;1.60;;;5.90;89.60;;;;;;4859770;29;20065;-75
2023/01/15 08:22:46;;;;;;;6.65;1.40;;;5.90;89.60;;;;;;4857827;29;20482;-76
2023/01/15 08:25:15;;;;;;;9.55;1.58;;;5.90;90.00;;;;;;4860451;29;20152;-75
2023/01/15 08:27:42;;;;;;;9.63;1.67;;;6.00;90.60;;;;;;4846890;29;20137;-76
2023/01/15 08:30:11;;;;;;;10.88;1.58;;;6.00;89.20;;;;;;4849022;29;20057;-76
2023/01/15 08:32:37;;;;;;;6.20;1.27;;;6.00;90.20;;;;;;4850690;29;20045;-76
2023/01/15 08:35:03;;;;;;;7.93;1.52;;;5.90;90.70;;;;;;4856103;29;20057;-76
2023/01/15 08:37:29;;;;;;;9.13;1.30;;;5.90;90.40;;;;;;4855183;29;20045;-76
2023/01/15 08:39:55;;;;;;;8.90;1.52;;;5.90;90.50;;;;;;4854516;29;20046;-76
2023/01/15 08:42:21;;;;;;;6.68;1.20;;;5.90;91.00;;;;;;4855840;29;20045;-75
2023/01/15 08:44:48;;;;;;;6.38;1.60;;;5.90;91.20;;;;;;4841414;29;20049;-76
2023/01/15 08:47:15;;;;;;;6.63;1.55;;;5.90;91.90;;;;;;4855330;29;20141;-75
2023/01/15 08:49:41;;;;;;;14.93;1.70;;;5.90;92.60;;;;;;4846374;29;20057;-76
2023/01/15 08:52:07;;;;;;;8.02;1.38;;;5.90;92.90;;;;;;4854215;29;20048;-76
2023/01/15 08:54:32;;;;;;;9.07;1.35;;;5.90;94.00;;;;;;4852333;29;20406;-75
2023/01/15 08:56:59;;;;;;;8.07;1.70;;;5.70;96.50;;;;;;4857799;29;20080;-76
2023/01/15 08:59:25;;;;;;;7.63;1.42;;;5.40;99.90;;;;;;4852695;29;20049;-75
2023/01/15 09:01:51;;;;;;;12.60;1.88;;;5.20;99.90;;;;;;4855726;29;20094;-76
2023/01/15 09:04:19;;;;;;;8.75;1.42;;;5.10;99.90;;;;;;4838423;29;20607;-75
2023/01/15 09:06:46;;;;;;;5.63;1.27;;;5.00;99.90;;;;;;4853096;29;20060;-76
2023/01/15 09:09:12;;;;;;;7.18;1.50;;;4.90;99.90;;;;;;4853976;29;20045;-76
2023/01/15 09:11:43;;;;;;;6.70;1.30;;;5.00;99.90;;;;;;4854087;29;20092;-75
2023/01/15 09:14:09;;;;;;;10.60;1.88;;;5.00;99.90;;;;;;4853468;29;20042;-75
2023/01/15 09:16:36;;;;;;;10.82;1.77;;;5.10;99.90;;;;;;4856876;29;20053;-76
2023/01/15 09:19:03;;;;;;;7.43;1.38;;;5.20;99.90;;;;;;4851615;29;20319;-76
2023/01/15 09:21:28;;;;;;;6.80;1.30;;;5.30;99.90;;;;;;4858894;29;20048;-76
2023/01/15 09:23:54;;;;;;;10.55;1.83;;;5.50;99.90;;;;;;4851938;29;20049;-76
2023/01/15 09:26:26;;;;;;;7.75;1.15;;;5.50;99.90;;;;;;4858758;29;20045;-76
2023/01/15 09:28:52;;;;;;;18.27;2.45;;;5.50;99.90;;;;;;4841805;29;20052;-76
2023/01/15 09:31:18;;;;;;;7.82;1.45;;;5.60;99.90;;;;;;4848786;29;20038;-77
2023/01/15 09:33:43;;;;;;;10.13;1.65;;;5.60;99.90;;;;;;4855098;29;20057;-76
2023/01/15 09:36:35;;;;;;;9.23;1.90;;;5.70;99.90;;;;;;4851642;29;20129;-77
2023/01/15 09:39:03;;;;;;;7.82;1.42;;;5.90;99.90;;;;;;4853123;29;20128;-74
2023/01/15 09:44:44;;;;;;;11.00;1.85;;;6.00;99.90;;;;;;4855738;29;20057;-74
2023/01/15 09:47:29;;;;;;;8.53;1.70;;;6.00;99.90;;;;;;4853203;29;20132;-76
2023/01/15 09:50:27;;;;;;;7.68;1.42;;;6.00;99.90;;;;;;4854551;29;20069;-76
2023/01/15 09:53:16;;;;;;;10.45;2.05;;;6.10;99.90;;;;;;4811852;29;20397;-75
2023/01/15 09:55:47;;;;;;;11.20;1.83;;;6.10;99.90;;;;;;4850988;29;20049;-76
2023/01/15 09:58:15;;;;;;;10.23;2.03;;;6.20;99.90;;;;;;4857005;29;20069;-76
2023/01/15 10:00:47;;;;;;;8.23;1.65;;;6.30;99.90;;;;;;4854124;29;20060;-76
2023/01/15 10:03:41;;;;;;;7.95;1.52;;;6.40;99.90;;;;;;4839959;29;20078;-76
2023/01/15 10:06:21;;;;;;;9.27;1.45;;;6.50;99.90;;;;;;4857678;29;20124;-76
2023/01/15 10:08:49;;;;;;;11.38;1.85;;;6.60;99.40;;;;;;4840879;29;20390;-76
2023/01/15 10:11:15;;;;;;;7.38;1.75;;;6.70;97.80;;;;;;4857843;29;20132;-76
2023/01/15 10:13:46;;;;;;;9.73;1.55;;;6.70;96.50;;;;;;4855100;29;20134;-76
2023/01/15 10:16:21;;;;;;;10.57;1.60;;;6.70;96.50;;;;;;4850950;29;20052;-75
2023/01/15 10:18:47;;;;;;;7.97;1.90;;;6.80;95.20;;;;;;4853168;29;20045;-75
2023/01/15 10:21:21;;;;;;;9.50;1.88;;;6.80;95.80;;;;;;4856917;29;20056;-75
2023/01/15 10:24:02;;;;;;;9.57;1.67;;;6.80;93.80;;;;;;4853517;29;20076;-75
2023/01/15 10:26:55;;;;;;;8.82;1.90;;;6.80;94.10;;;;;;4856600;29;20081;-75
2023/01/15 10:29:41;;;;;;;5.90;1.50;;;6.90;93.10;;;;;;4853282;29;20046;-75
2023/01/15 10:32:12;;;;;;;8.13;1.58;;;7.00;92.50;;;;;;4853925;29;20086;-75
2023/01/15 10:35:15;;;;;;;10.25;1.83;;;7.20;93.20;;;;;;4853434;29;20064;-75
2023/01/15 10:37:47;;;;;;;8.20;1.42;;;7.30;92.10;;;;;;4854878;29;20129;-75
2023/01/15 10:40:31;;;;;;;6.47;1.30;;;7.40;91.80;;;;;;4854154;29;20479;-75
2023/01/15 10:43:15;;;;;;;13.32;1.55;;;7.40;91.00;;;;;;4847816;29;20495;-75
2023/01/15 10:45:51;;;;;;;12.02;2.00;;;7.40;90.00;;;;;;4835670;29;20448;-75
2023/01/15 10:48:32;;;;;;;9.07;1.95;;;7.30;87.70;;;;;;4853351;29;20081;-75
2023/01/15 10:51:02;;;;;;;10.98;1.63;;;7.20;90.80;;;;;;4853519;29;20056;-75
2023/01/15 10:54:06;;;;;;;12.75;2.10;;;7.40;89.30;;;;;;4853217;29;20485;-75
2023/01/15 10:56:39;;;;;;;7.82;1.40;;;7.50;89.30;;;;;;4845574;29;20061;-75
2023/01/15 10:59:37;;;;;;;7.53;1.50;;;7.60;87.90;;;;;;4853993;29;20121;-75
2023/01/15 11:02:32;;;;;;;9.55;1.33;;;7.70;87.30;;;;;;4846748;29;20057;-75
2023/01/15 11:04:59;;;;;;;10.55;1.58;;;7.70;85.40;;;;;;4851625;29;20450;-75
2023/01/15 11:07:39;;;;;;;8.10;1.60;;;7.80;84.20;;;;;;4852818;29;20084;-75
2023/01/15 11:10:11;;;;;;;6.97;1.50;;;7.80;81.00;;;;;;4856082;29;20053;-76
2023/01/15 11:21:14;;;;;;;8.93;1.65;;;8.40;81.60;;;;;;4849037;29;20137;-76
2023/01/15 11:23:40;;;;;;;7.07;1.60;;;8.40;76.40;;;;;;4853852;29;20050;-75
2023/01/15 11:26:06;;;;;;;10.57;1.83;;;8.40;73.10;;;;;;4854509;29;20505;-76
2023/01/15 11:28:35;;;;;;;7.72;1.65;;;8.30;71.20;;;;;;4853522;29;20081;-76
2023/01/15 11:31:01;;;;;;;9.48;1.50;;;8.00;71.80;;;;;;4852945;29;20385;-75
2023/01/15 11:33:28;;;;;;;8.63;1.83;;;7.90;77.70;;;;;;4837288;29;20088;-75
2023/01/15 11:35:57;;;;;;;10.65;1.88;;;7.70;78.00;;;;;;4851551;29;20041;-75
2023/01/15 11:38:24;;;;;;;7.45;1.55;;;7.70;76.70;;;;;;4850759;29;20037;-75
2023/01/15 11:40:58;;;;;;;8.10;1.60;;;7.60;79.70;;;;;;4850924;29;20049;-75
2023/01/15 11:52:05;;;;;;;10.38;1.63;;;7.50;81.20;;;;;;4850787;29;20107;-75
2023/01/15 11:54:35;;;;;;;9.07;1.95;;;7.50;86.10;;;;;;4847327;29;20132;-75
2023/01/15 11:57:01;;;;;;;9.27;1.90;;;7.40;90.80;;;;;;4847957;29;20077;-75
2023/01/15 11:59:28;;;;;;;10.05;1.70;;;7.20;92.80;;;;;;4846817;29;20446;-75
2023/01/15 12:01:58;;;;;;;;;;;7.20;94.10;;;;;;4848792;29;20054;-75
2023/01/15 12:04:42;;;;;;;8.65;1.73;;;7.20;94.80;;;;;;4873009;29;20038;-74
2023/01/15 12:07:12;;;;;;;9.57;1.63;;;7.10;96.40;;;;;;4844614;29;20056;-75
2023/01/15 12:10:02;;;;;;;15.15;2.33;;;7.10;97.00;;;;;;4852085;29;20120;-75
2023/01/15 12:12:43;;;;;;;8.93;2.05;;;7.20;96.00;;;;;;4855045;29;20050;-75
2023/01/15 12:15:33;;;;;;;12.02;2.03;;;7.20;96.20;;;;;;4851723;29;20061;-75
2023/01/15 12:18:20;;;;;;;12.40;2.17;;;7.20;95.60;;;;;;4852301;29;20483;-75
2023/01/15 12:21:00;;;;;;;10.75;1.80;;;7.20;94.90;;;;;;4838896;29;20052;-75
2023/01/15 12:23:53;;;;;;;9.30;2.00;;;7.20;95.50;;;;;;4855046;29;20048;-74
2023/01/15 12:26:24;;;;;;;11.50;2.28;;;7.10;97.80;;;;;;4856330;29;20062;-74
2023/01/15 12:28:56;;;;;;;9.43;2.20;;;7.00;99.40;;;;;;4856384;29;20053;-75
2023/01/15 12:31:38;;;;;;;12.82;3.60;;;6.80;99.90;;;;;;4855615;29;20068;-74
2023/01/15 12:34:26;;;;;;;5.03;1.10;;;6.40;99.90;;;;;;4863614;29;20127;-74
2023/01/15 12:37:05;;;;;;;5.85;0.98;;;5.80;99.90;;;;;;4844856;29;20395;-74
2023/01/15 12:39:52;;;;;;;4.05;0.90;;;5.40;99.90;;;;;;4850647;29;20054;-75
2023/01/15 12:45:24;;;;;;;4.25;1.05;;;5.30;99.90;;;;;;4852607;29;20049;-75
2023/01/15 12:48:04;;;;;;;3.80;0.90;;;5.50;99.90;;;;;;4859829;29;20045;-75
2023/01/15 12:50:45;;;;;;;5.93;1.20;;;5.70;99.90;;;;;;4857410;29;20053;-75
2023/01/15 12:53:31;;;;;;;5.25;1.00;;;5.90;99.90;;;;;;4859739;29;20105;-75
2023/01/15 12:56:26;;;;;;;7.95;1.20;;;5.70;99.90;;;;;;4844142;29;20045;-76
2023/01/15 12:59:17;;;;;;;7.90;1.23;;;5.90;99.90;;;;;;4858131;29;20242;-75
2023/01/15 13:02:03;;;;;;;5.80;1.10;;;5.90;99.90;;;;;;4848036;29;20046;-76
2023/01/15 13:04:56;;;;;;;7.88;1.25;;;6.00;99.90;;;;;;4867941;29;20136;-76
2023/01/15 13:07:40;;;;;;;6.80;1.05;;;6.20;99.90;;;;;;4867780;29;20498;-75
2023/01/15 13:10:15;;;;;;;5.53;1.30;;;6.30;99.90;;;;;;4874117;29;20045;-75
2023/01/15 13:12:41;;;;;;;10.68;1.45;;;6.20;99.90;;;;;;4842293;29;20501;-76
2023/01/15 13:15:11;;;;;;;4.35;0.80;;;6.10;99.90;;;;;;4853991;29;20041;-76
2023/01/15 13:18:13;;;;;;;6.50;0.90;;;6.40;99.90;;;;;;4851602;29;20538;-75
2023/01/15 13:20:50;;;;;;;5.18;1.00;;;6.30;99.90;;;;;;4858261;29;20049;-75
2023/01/15 13:23:25;;;;;;;;;;;6.20;99.90;;;;;;4857543;29;20052;-76
2023/01/15 13:26:00;;;;;;;4.07;0.85;;;6.20;99.90;;;;;;4855128;29;19924;-76
2023/01/15 13:28:42;;;;;;;5.78;0.98;;;6.40;99.90;;;;;;4856316;29;20053;-76
2023/01/15 13:31:19;;;;;;;5.72;1.05;;;6.40;99.90;;;;;;4858694;29;20404;-76
2023/01/15 13:33:51;;;;;;;3.92;0.85;;;6.40;99.90;;;;;;4856181;29;20450;-76
2023/01/15 13:36:29;;;;;;;4.78;0.75;;;6.40;99.90;;;;;;4842998;29;20052;-76
2023/01/15 13:38:59;;;;;;;5.03;1.02;;;6.40;99.90;;;;;;4857775;29;20160;-76
2023/01/15 13:44:22;;;;;;;5.05;0.90;;;6.40;99.90;;;;;;4858784;29;20060;-75
2023/01/15 13:47:02;;;;;;;6.13;1.33;;;6.50;99.90;;;;;;4855850;29;20046;-75
2023/01/15 13:49:59;;;;;;;7.72;1.85;;;6.50;99.90;;;;;;4852289;29;20054;-76
2023/01/15 13:52:31;;;;;;;4.85;1.05;;;6.40;99.90;;;;;;4853658;29;20041;-75
2023/01/15 13:55:10;;;;;;;4.00;1.00;;;6.30;99.90;;;;;;4855962;29;20582;-75
2023/01/15 13:57:39;;;;;;;3.47;1.00;;;6.10;99.90;;;;;;4851754;29;20045;-75
2023/01/15 14:00:28;;;;;;;2.33;0.70;;;6.10;99.90;;;;;;4855220;29;20041;-76
2023/01/15 14:03:02;;;;;;;2.50;0.65;;;6.00;99.90;;;;;;4855440;29;20081;-75
2023/01/15 14:05:34;;;;;;;5.63;1.00;;;5.90;99.90;;;;;;4854850;29;20116;-76
2023/01/15 14:08:01;;;;;;;6.55;1.30;;;6.20;99.90;;;;;;4850588;29;20105;-76
2023/01/15 14:10:30;;;;;;;4.95;1.00;;;6.40;99.90;;;;;;4855298;29;20730;-76